Time;durP1;ratioP1;P1;durP2;ratioP2;P2;SDS_P1;SDS_P2;PMS_P1;PMS_P2;Temp;Humidity;BMP_temperature;BMP_pressure;BME280_temperature;BME280_humidity;BME280_pressure;Samples;Min_cycle;Max_cycle;Signal;HPM_P1;HPM_P2
2023/03/25 00:01:48;;;;;;;1.25;0.57;;;;;;;9.46;78.18;100219.47;5036551;27;96622;-30
2023/03/25 00:04:16;;;;;;;0.57;0.22;;;;;;;9.45;78.05;100216.88;5036303;27;96791;-29
2023/03/25 00:06:41;;;;;;;2.83;0.68;;;;;;;9.48;78.04;100228.31;5035719;28;98053;-29
2023/03/25 00:09:07;;;;;;;0.63;0.20;;;;;;;9.45;78.20;100212.31;5035895;27;97961;-29
2023/03/25 00:11:32;;;;;;;2.53;0.30;;;;;;;9.45;78.28;100214.16;5035506;27;101404;-29
2023/03/25 00:13:57;;;;;;;3.58;0.43;;;;;;;9.45;78.50;100211.47;5036471;27;96507;-31
2023/03/25 00:16:23;;;;;;;0.35;0.25;;;;;;;9.46;78.21;100214.06;5036143;27;97881;-29
2023/03/25 00:18:48;;;;;;;1.77;0.60;;;;;;;9.48;78.16;100211.25;5036233;27;97261;-30
2023/03/25 00:21:14;;;;;;;1.60;0.52;;;;;;;9.46;78.43;100216.78;5036031;28;96620;-29
2023/03/25 00:23:41;;;;;;;2.42;0.85;;;;;;;9.46;78.19;100219.47;5035153;28;96837;-30
2023/03/25 00:26:07;;;;;;;5.78;0.95;;;;;;;9.44;77.90;100224.13;5033853;28;100867;-29
2023/03/25 00:28:34;;;;;;;2.63;0.40;;;;;;;9.43;77.97;100213.41;5034368;28;99023;-29
2023/03/25 00:31:02;;;;;;;4.88;0.45;;;;;;;9.47;77.96;100215.78;5033963;28;96603;-30
2023/03/25 00:33:28;;;;;;;0.38;0.10;;;;;;;9.44;78.21;100204.31;5035965;27;96755;-29
2023/03/25 00:35:58;;;;;;;1.02;0.40;;;;;;;9.43;78.25;100208.00;5034322;28;100835;-29
2023/03/25 00:38:33;;;;;;;4.35;0.52;;;;;;;9.42;78.18;100201.72;5034278;28;101072;-29
2023/03/25 00:41:16;;;;;;;1.17;0.45;;;;;;;9.44;78.15;100205.19;5034492;28;96647;-29
2023/03/25 00:43:42;;;;;;;0.85;0.30;;;;;;;9.44;78.01;100204.31;5034491;28;96703;-30
2023/03/25 00:46:07;;;;;;;2.03;0.70;;;;;;;9.44;77.93;100202.50;5033924;27;101006;-29
2023/03/25 00:48:33;;;;;;;1.48;0.40;;;;;;;9.41;78.03;100205.38;5035652;27;98960;-29
2023/03/25 00:50:58;;;;;;;1.20;0.38;;;;;;;9.46;78.08;100205.97;5035510;28;96491;-30
2023/03/25 00:53:23;;;;;;;5.03;0.80;;;;;;;9.44;77.96;100207.00;5035685;27;96722;-30
2023/03/25 00:55:49;;;;;;;2.45;0.35;;;;;;;9.43;78.09;100202.59;5034632;27;99392;-30
2023/03/25 00:58:15;;;;;;;6.38;0.73;;;;;;;9.41;78.13;100199.13;5035356;28;98316;-30
2023/03/25 01:00:40;;;;;;;1.70;0.70;;;;;;;9.39;77.88;100201.94;5035600;27;96539;-29
2023/03/25 01:03:06;;;;;;;5.30;0.68;;;;;;;9.36;77.99;100211.09;5033805;28;101761;-29
2023/03/25 01:05:32;;;;;;;2.97;0.40;;;;;;;9.37;78.17;100214.69;5035315;27;97930;-30
2023/03/25 01:07:57;;;;;;;1.15;0.40;;;;;;;9.31;78.36;100199.72;5035006;27;99736;-30
2023/03/25 01:10:22;;;;;;;2.13;0.80;;;;;;;9.31;78.62;100206.97;5035562;27;96652;-29
2023/03/25 01:12:48;;;;;;;1.25;0.52;;;;;;;9.32;78.91;100209.59;5035708;27;96773;-30
2023/03/25 01:15:14;;;;;;;8.35;1.00;;;;;;;9.28;78.72;100207.19;5035489;28;97481;-30
2023/03/25 01:17:39;;;;;;;1.38;0.35;;;;;;;9.29;79.22;100211.59;5033649;28;101455;-29
2023/03/25 01:20:07;;;;;;;1.17;0.35;;;;;;;9.30;79.51;100208.81;5034599;27;96643;-29
2023/03/25 01:22:33;;;;;;;2.58;1.08;;;;;;;9.27;80.32;100203.63;5033840;28;96895;-29
2023/03/25 01:24:58;;;;;;;2.47;0.82;;;;;;;9.19;81.24;100200.56;5034896;28;98095;-29
2023/03/25 01:27:23;;;;;;;2.78;0.80;;;;;;;9.13;81.55;100201.84;5034387;27;98308;-31
2023/03/25 01:29:49;;;;;;;1.65;0.73;;;;;;;9.04;82.14;100202.44;5035389;28;96467;-30
2023/03/25 01:32:15;;;;;;;0.90;0.20;;;;;;;9.00;83.50;100205.44;5033491;28;96829;-29
2023/03/25 01:34:41;;;;;;;4.70;0.77;;;;;;;8.99;83.68;100203.72;5033244;28;100939;-30
2023/03/25 01:37:08;;;;;;;4.78;0.52;;;;;;;8.94;83.92;100201.31;5033714;28;100855;-29
2023/03/25 01:39:34;;;;;;;0.65;0.30;;;;;;;8.93;83.98;100192.31;5033536;28;96617;-30
2023/03/25 01:42:00;;;;;;;2.75;0.57;;;;;;;8.88;85.48;100196.28;5034973;27;96773;-29
2023/03/25 01:44:26;;;;;;;4.40;0.98;;;;;;;8.88;84.52;100205.25;5034385;27;97853;-31
2023/03/25 01:46:52;;;;;;;4.82;0.88;;;;;;;8.86;84.58;100184.72;5034707;27;98277;-30
2023/03/25 01:49:30;;;;;;;6.40;0.95;;;;;;;8.89;84.92;100198.91;5034847;27;96746;-29
2023/03/25 01:52:01;;;;;;;2.85;0.57;;;;;;;8.86;84.77;100190.97;5034892;27;96515;-30
2023/03/25 01:54:27;;;;;;;3.10;0.63;;;;;;;8.86;85.70;100188.28;5033204;28;101145;-29
2023/03/25 01:56:53;;;;;;;4.35;0.63;;;;;;;8.89;85.86;100190.81;5034529;28;97870;-31
2023/03/25 01:59:23;;;;;;;2.35;0.40;;;;;;;8.93;85.31;100192.31;5033450;28;96566;-29
2023/03/25 02:01:50;;;;;;;0.98;0.50;;;;;;;8.95;85.04;100191.38;5033642;28;96733;-29
2023/03/25 02:04:26;;;;;;;0.88;0.43;;;;;;;8.93;84.60;100184.22;5035059;27;97892;-29
2023/03/25 02:06:53;;;;;;;1.20;0.50;;;;;;;8.95;85.23;100176.03;5036573;28;100847;-29
2023/03/25 02:09:22;;;;;;;0.13;0.13;;;;;;;8.99;85.37;100171.31;5037759;27;96581;-31
2023/03/25 02:11:48;;;;;;;2.90;1.05;;;;;;;9.02;84.30;100181.91;5036907;28;96869;-29
2023/03/25 02:14:18;;;;;;;2.67;0.52;;;;;;;8.99;84.67;100182.97;5038021;27;97850;-29
2023/03/25 02:17:18;;;;;;;2.17;0.52;;;;;;;8.98;85.11;100181.22;5036522;28;101609;-30
2023/03/25 02:20:15;;;;;;;1.83;0.43;;;;;;;8.98;84.90;100183.91;5036690;28;96555;-31
2023/03/25 02:22:49;;;;;;;0.85;0.35;;;;;;;8.96;85.39;100183.16;5038111;28;96754;-29
2023/03/25 02:25:34;;;;;;;3.38;1.10;;;;;;;8.93;85.55;100177.94;5037954;27;97506;-29
2023/03/25 02:28:24;;;;;;;0.82;0.30;;;;;;;8.93;85.29;100175.25;5037437;27;99627;-29
2023/03/25 02:30:58;;;;;;;4.07;0.45;;;;;;;8.90;85.10;100175.47;5036416;28;96768;-29
2023/03/25 02:34:14;;;;;;;1.55;0.28;;;;;;;8.92;86.35;100166.28;5037887;27;96690;-29
2023/03/25 02:37:11;;;;;;;5.90;0.73;;;;;;;8.90;85.57;100170.91;5018743;27;97924;-29
2023/03/25 02:39:46;;;;;;;1.20;0.57;;;;;;;8.85;86.95;100156.84;5037566;28;97402;-29
2023/03/25 02:42:17;;;;;;;0.93;0.40;;;;;;;8.91;86.28;100158.28;5036521;28;96661;-31
2023/03/25 02:45:17;;;;;;;0.45;0.25;;;;;;;8.88;86.82;100153.09;5036522;28;96834;-28
2023/03/25 02:47:50;;;;;;;2.28;0.63;;;;;;;8.85;86.47;100158.69;5037600;27;97391;-29
2023/03/25 02:50:23;;;;;;;2.50;0.50;;;;;;;8.87;86.70;100163.03;5036015;28;101095;-31
2023/03/25 02:52:54;;;;;;;0.73;0.32;;;;;;;8.85;87.38;100146.06;5036317;27;96687;-29
2023/03/25 02:55:22;;;;;;;1.63;0.43;;;;;;;8.90;86.46;100156.56;5038099;27;96618;-29
2023/03/25 02:57:51;;;;;;;8.68;0.77;;;;;;;8.91;86.65;100153.75;5037202;28;97434;-30
2023/03/25 03:00:22;;;;;;;4.65;0.40;;;;;;;8.92;87.21;100152.78;5036971;27;99671;-29
2023/03/25 03:02:58;;;;;;;4.18;0.75;;;;;;;8.93;85.84;100151.81;5036820;27;96575;-30
2023/03/25 03:05:23;;;;;;;1.95;0.50;;;;;;;8.90;87.29;100141.22;5036116;28;96565;-30
2023/03/25 03:07:55;;;;;;;3.67;0.60;;;;;;;8.89;86.32;100139.50;5037207;28;97975;-31
2023/03/25 03:10:29;;;;;;;0.82;0.43;;;;;;;8.89;86.86;100117.00;5035684;28;100885;-29
2023/03/25 03:13:20;;;;;;;1.50;0.50;;;;;;;8.89;88.06;100138.59;5035998;28;96605;-29
2023/03/25 03:16:05;;;;;;;2.50;0.47;;;;;;;8.86;88.04;100122.59;5034815;27;96817;-30
2023/03/25 03:18:45;;;;;;;1.55;0.52;;;;;;;8.82;88.04;100124.66;5035589;28;101235;-29
2023/03/25 03:21:37;;;;;;;1.13;0.40;;;;;;;8.84;87.67;100121.84;5035745;27;101457;-29
2023/03/25 03:24:15;;;;;;;1.25;0.22;;;;;;;8.82;88.67;100121.97;5037408;27;96506;-30
2023/03/25 03:26:47;;;;;;;1.05;0.45;;;;;;;8.81;88.60;100130.16;5034841;28;96577;-29
2023/03/25 03:29:25;;;;;;;0.38;0.28;;;;;;;8.76;89.25;100129.59;5034982;28;100842;-29
2023/03/25 03:31:57;;;;;;;5.20;0.80;;;;;;;8.75;89.08;100131.44;5035068;28;101060;-29
2023/03/25 03:34:39;;;;;;;2.72;0.20;;;;;;;8.71;89.64;100125.34;5035753;28;96770;-29
2023/03/25 03:37:08;;;;;;;1.48;0.50;;;;;;;8.76;89.37;100132.28;5035779;28;96663;-29
2023/03/25 03:39:37;;;;;;;1.80;0.60;;;;;;;8.67;89.67;100129.22;5035136;28;100998;-29
2023/03/25 03:42:21;;;;;;;0.55;0.40;;;;;;;8.68;90.70;100132.81;5036440;27;97483;-29
2023/03/25 03:44:51;;;;;;;2.70;0.77;;;;;;;8.64;91.28;100133.97;5036713;28;96847;-30
2023/03/25 03:47:31;;;;;;;3.85;0.77;;;;;;;8.66;91.38;100148.22;5035646;28;96869;-30
2023/03/25 03:50:02;;;;;;;2.10;0.57;;;;;;;8.63;91.24;100157.41;5036705;27;97887;-29
2023/03/25 03:53:01;;;;;;;0.50;0.30;;;;;;;8.64;92.51;100158.25;5034935;27;100780;-29
2023/03/25 03:55:36;;;;;;;0.98;0.20;;;;;;;8.65;92.74;100155.47;5026458;28;96863;-29
2023/03/25 03:58:09;;;;;;;1.30;0.45;;;;;;;8.63;91.76;100159.25;5035261;28;96720;-29
2023/03/25 04:00:43;;;;;;;2.83;0.57;;;;;;;8.60;92.32;100159.41;5034804;28;101163;-29
2023/03/25 04:03:23;;;;;;;1.15;0.77;;;;;;;8.58;92.47;100161.34;5034851;28;101117;-30
2023/03/25 04:05:57;;;;;;;1.55;0.45;;;;;;;8.58;92.33;100156.84;5035066;28;96699;-29
2023/03/25 04:08:41;;;;;;;3.13;0.50;;;;;;;8.63;91.20;100156.53;5035214;28;96819;-29
2023/03/25 04:11:12;;;;;;;2.10;0.55;;;;;;;8.62;91.59;100157.47;5034706;28;101199;-30
2023/03/25 04:13:44;;;;;;;0.68;0.32;;;;;;;8.65;91.81;100157.28;5035045;28;101210;-29
2023/03/25 04:16:10;;;;;;;1.90;0.80;;;;;;;8.63;91.11;100145.75;5035126;28;96488;-29
2023/03/25 04:18:35;;;;;;;4.82;0.75;;;;;;;8.67;91.32;100160.75;5036379;27;96704;-30
2023/03/25 04:21:01;;;;;;;2.70;0.73;;;;;;;8.68;90.26;100151.69;5035668;27;97949;-30
2023/03/25 04:23:30;;;;;;;5.82;1.00;;;;;;;8.68;89.98;100152.56;5036040;27;97267;-29
2023/03/25 04:25:56;;;;;;;2.13;0.52;;;;;;;8.69;90.60;100142.63;5035811;28;96449;-29
2023/03/25 04:28:25;;;;;;;4.18;1.08;;;;;;;8.73;90.19;100154.97;5033914;27;96862;-29
2023/03/25 04:30:54;;;;;;;1.08;0.82;;;;;;;8.73;89.88;100152.25;5033955;28;101006;-29
2023/03/25 04:33:21;;;;;;;1.60;0.60;;;;;;;8.73;89.41;100160.38;5034376;28;101013;-29
2023/03/25 04:35:49;;;;;;;5.82;1.15;;;;;;;8.76;89.22;100152.06;5034469;28;96651;-29
2023/03/25 04:38:15;;;;;;;4.45;0.57;;;;;;;8.81;89.53;100167.97;5035990;27;96913;-29
2023/03/25 04:40:45;;;;;;;4.88;1.85;;;;;;;8.81;89.27;100168.81;5034220;28;100956;-29
2023/03/25 04:43:14;;;;;;;6.35;1.08;;;;;;;8.83;88.83;100161.50;5035539;28;98066;-29
2023/03/25 04:45:47;;;;;;;3.60;1.13;;;;;;;8.82;88.87;100159.75;5035000;27;96658;-29
2023/03/25 04:48:34;;;;;;;3.15;0.77;;;;;;;8.83;88.92;100156.09;5034500;28;96684;-29
2023/03/25 04:51:02;;;;;;;2.58;0.95;;;;;;;8.82;88.53;100159.75;5034149;28;100717;-29
2023/03/25 04:53:28;;;;;;;5.47;1.50;;;;;;;8.83;88.33;100168.72;5034087;28;100849;-29
2023/03/25 04:55:54;;;;;;;7.88;1.20;;;;;;;8.81;88.41;100168.81;5034179;28;96603;-29
2023/03/25 04:58:20;;;;;;;3.33;0.52;;;;;;;8.81;88.56;100171.53;5034186;28;96792;-29
2023/03/25 05:00:49;;;;;;;1.00;0.40;;;;;;;8.83;88.46;100183.09;5034099;28;100786;-29
2023/03/25 05:03:15;;;;;;;10.57;0.70;;;;;;;8.83;88.33;100172.28;5033997;28;101185;-29
2023/03/25 05:05:41;;;;;;;7.80;1.77;;;;;;;8.80;88.20;100156.28;5033964;28;96692;-29
2023/03/25 05:08:06;;;;;;;1.25;0.75;;;;;;;8.80;88.39;100158.13;5035532;28;96791;-31
2023/03/25 05:10:34;;;;;;;1.80;0.60;;;;;;;8.81;88.18;100171.53;5034754;28;97695;-29
2023/03/25 05:13:04;;;;;;;5.55;0.80;;;;;;;8.79;87.96;100176.16;5033692;28;101187;-29
2023/03/25 05:15:34;;;;;;;3.00;0.98;;;;;;;8.74;87.73;100162.09;5035260;27;96682;-30
2023/03/25 05:18:00;;;;;;;3.25;0.82;;;;;;;8.75;87.73;100171.03;5033906;28;96611;-29
2023/03/25 05:20:26;;;;;;;3.75;0.85;;;;;;;8.69;87.61;100173.19;5033553;28;101074;-29
2023/03/25 05:22:52;;;;;;;9.82;1.20;;;;;;;8.69;87.46;100172.31;5034730;27;99084;-29
2023/03/25 05:25:20;;;;;;;2.67;1.20;;;;;;;8.66;87.28;100167.13;5033780;28;96523;-31
2023/03/25 05:27:46;;;;;;;2.42;0.57;;;;;;;8.67;87.47;100179.66;5034907;27;96759;-29
2023/03/25 05:30:12;;;;;;;4.47;1.02;;;;;;;8.67;87.26;100174.25;5035282;27;97425;-29
2023/03/25 05:32:39;;;;;;;3.72;0.65;;;;;;;8.69;87.29;100183.97;5034445;28;97899;-29
2023/03/25 05:35:06;;;;;;;7.13;1.35;;;;;;;8.71;87.02;100183.88;5034474;27;96464;-30
2023/03/25 05:37:31;;;;;;;1.63;0.45;;;;;;;8.76;87.48;100180.91;5033655;28;96752;-29
2023/03/25 05:39:56;;;;;;;4.32;1.02;;;;;;;8.73;87.04;100191.91;5033823;27;97836;-28
2023/03/25 05:42:22;;;;;;;3.08;0.85;;;;;;;8.74;87.50;100193.63;5034513;27;99106;-29
2023/03/25 05:44:52;;;;;;;3.25;0.80;;;;;;;8.73;86.94;100191.91;5033350;28;97560;-31
2023/03/25 05:47:22;;;;;;;9.77;1.48;;;;;;;8.75;87.39;100204.34;5033588;28;96836;-29
2023/03/25 05:49:48;;;;;;;1.83;0.75;;;;;;;8.74;87.12;100193.63;5034576;27;99373;-29
2023/03/25 05:52:18;;;;;;;5.72;0.80;;;;;;;8.76;87.34;100191.69;5033561;28;101106;-29
2023/03/25 05:54:44;;;;;;;2.95;0.77;;;;;;;8.75;86.91;100187.25;5034638;27;96474;-29
2023/03/25 05:57:11;;;;;;;4.57;1.02;;;;;;;8.76;86.78;100200.66;5033349;28;96909;-29
2023/03/25 05:59:37;;;;;;;2.83;1.08;;;;;;;8.74;86.95;100204.41;5032659;27;101073;-29
2023/03/25 06:02:06;;;;;;;4.40;1.05;;;;;;;8.73;87.20;100200.00;5033030;28;100969;-29
2023/03/25 06:04:32;;;;;;;2.42;0.40;;;;;;;8.67;88.00;100190.44;5033471;28;96735;-30
2023/03/25 06:06:58;;;;;;;1.35;0.30;;;;;;;8.65;88.14;100192.38;5034569;27;96897;-29
2023/03/25 06:09:23;;;;;;;3.83;0.60;;;;;;;8.63;88.94;100197.88;5034392;27;97499;-29
2023/03/25 06:11:52;;;;;;;0.77;0.43;;;;;;;8.62;89.48;100212.34;5034312;27;97719;-29
2023/03/25 06:14:18;;;;;;;2.85;0.95;;;;;;;8.62;88.81;100227.66;5034383;27;96499;-29
2023/03/25 06:16:43;;;;;;;0.98;0.57;;;;;;;8.61;88.96;100215.16;5033450;28;96871;-30
2023/03/25 06:19:08;;;;;;;2.30;0.32;;;;;;;8.56;89.28;100223.53;5034314;27;97370;-30
2023/03/25 06:21:34;;;;;;;4.07;0.90;;;;;;;8.57;89.20;100221.69;5034122;28;106631;-30
2023/03/25 06:24:00;;;;;;;5.05;0.88;;;;;;;8.60;88.94;100218.81;5033920;28;96511;-29
2023/03/25 06:26:26;;;;;;;6.40;1.25;;;;;;;8.61;88.79;100207.06;5032010;28;96896;-29
2023/03/25 06:28:52;;;;;;;8.30;0.80;;;;;;;8.66;88.73;100219.28;5034253;27;98425;-29
2023/03/25 06:31:21;;;;;;;3.92;0.85;;;;;;;8.65;88.67;100225.66;5033982;27;98346;-29
2023/03/25 06:33:48;;;;;;;5.13;1.27;;;;;;;8.67;88.54;100225.53;5034292;27;96524;-30
2023/03/25 06:36:19;;;;;;;4.13;1.10;;;;;;;8.65;88.39;100222.97;5034531;28;96736;-28
2023/03/25 06:38:49;;;;;;;4.53;1.30;;;;;;;8.67;88.94;100223.69;5032601;28;100756;-29
2023/03/25 06:41:19;;;;;;;3.55;0.88;;;;;;;8.71;88.22;100227.94;5032872;28;101288;-29
2023/03/25 06:43:45;;;;;;;11.02;1.50;;;;;;;8.70;88.24;100231.63;5034304;27;96476;-29
2023/03/25 06:46:11;;;;;;;8.48;1.33;;;;;;;8.69;88.42;100231.72;5034417;27;96742;-29
2023/03/25 06:48:37;;;;;;;5.85;1.25;;;;;;;8.64;88.64;100232.00;5033453;27;97861;-28
2023/03/25 06:51:02;;;;;;;2.70;0.75;;;;;;;8.72;88.87;100247.72;5035351;27;99416;-30
2023/03/25 06:53:27;;;;;;;3.40;1.08;;;;;;;8.72;88.53;100242.31;5037779;27;96461;-29
2023/03/25 06:55:56;;;;;;;3.38;0.65;;;;;;;8.78;88.80;100228.44;5037359;27;98010;-30
2023/03/25 06:58:21;;;;;;;4.78;0.98;;;;;;;8.82;88.05;100234.50;5035753;28;101244;-30
2023/03/25 07:00:51;;;;;;;6.85;0.98;;;;;;;8.86;87.72;100238.72;5037377;27;97786;-29
2023/03/25 07:03:17;;;;;;;10.25;1.27;;;;;;;8.90;87.51;100230.34;5037738;27;96716;-29
2023/03/25 07:05:42;;;;;;;3.92;0.65;;;;;;;8.95;87.19;100231.88;5037978;27;96750;-29
2023/03/25 07:08:08;;;;;;;6.43;1.00;;;;;;;8.99;86.80;100244.22;5036969;27;97842;-29
2023/03/25 07:10:33;;;;;;;5.38;1.05;;;;;;;9.00;86.86;100235.16;5036827;27;99255;-30
2023/03/25 07:12:58;;;;;;;5.03;0.70;;;;;;;9.02;86.69;100242.19;5036929;27;96459;-29
2023/03/25 07:15:24;;;;;;;3.08;0.52;;;;;;;9.06;86.57;100246.44;5037553;27;96699;-30
2023/03/25 07:17:49;;;;;;;8.63;1.08;;;;;;;9.08;86.48;100240.91;5037050;27;97836;-30
2023/03/25 07:20:15;;;;;;;7.00;1.75;;;;;;;9.07;85.99;100248.16;5036951;27;97241;-29
2023/03/25 07:22:40;;;;;;;13.07;1.20;;;;;;;9.09;85.50;100246.22;5037156;27;96626;-29
2023/03/25 07:25:06;;;;;;;4.97;1.00;;;;;;;9.12;85.54;100242.44;5037033;27;96782;-29
2023/03/25 07:27:31;;;;;;;4.13;0.70;;;;;;;9.14;85.40;100240.53;5035668;27;99207;-29
2023/03/25 07:29:57;;;;;;;6.38;1.42;;;;;;;9.12;85.16;100258.66;5037228;27;97224;-29
2023/03/25 07:32:22;;;;;;;4.68;1.35;;;;;;;9.10;85.05;100250.63;5037110;27;96868;-31
2023/03/25 07:34:47;;;;;;;4.95;1.00;;;;;;;9.13;85.09;100261.28;5037173;27;96790;-29
2023/03/25 07:37:13;;;;;;;2.50;1.10;;;;;;;9.13;85.02;100253.16;5036065;27;99199;-29
2023/03/25 07:39:38;;;;;;;3.38;0.70;;;;;;;9.14;84.78;100263.00;5036898;27;97740;-29
2023/03/25 07:42:05;;;;;;;7.90;1.48;;;;;;;9.17;84.48;100258.34;5036693;27;96465;-30
2023/03/25 07:44:30;;;;;;;3.67;1.00;;;;;;;9.17;84.75;100259.22;5035442;28;96946;-29
2023/03/25 07:46:56;;;;;;;1.70;0.60;;;;;;;9.18;84.71;100250.16;5036169;27;99344;-29
2023/03/25 07:49:21;;;;;;;4.88;0.73;;;;;;;9.19;84.44;100253.72;5036488;27;97360;-29
2023/03/25 07:51:46;;;;;;;3.90;0.82;;;;;;;9.21;84.39;100251.78;5036691;27;96495;-29
2023/03/25 07:54:12;;;;;;;2.55;1.02;;;;;;;9.23;84.18;100258.84;5037137;27;96792;-29
2023/03/25 07:56:37;;;;;;;1.92;0.40;;;;;;;9.27;84.40;100254.06;5036373;27;97452;-29
2023/03/25 07:59:03;;;;;;;5.40;1.13;;;;;;;9.30;84.51;100267.41;5036428;27;98290;-29
2023/03/25 08:01:29;;;;;;;10.15;1.30;;;;;;;9.30;84.95;100267.41;5034510;28;96761;-31
2023/03/25 08:03:54;;;;;;;3.90;1.00;;;;;;;9.25;85.20;100259.59;5035966;27;96810;-29
2023/03/25 08:06:20;;;;;;;8.88;1.17;;;;;;;9.24;84.76;100268.66;5035875;27;99546;-29
2023/03/25 08:08:45;;;;;;;4.30;0.68;;;;;;;9.26;85.09;100280.25;5035743;27;99143;-29
2023/03/25 08:11:11;;;;;;;7.95;1.23;;;;;;;9.26;84.72;100268.56;5036548;27;96575;-31
2023/03/25 08:13:36;;;;;;;2.42;0.47;;;;;;;9.35;85.48;100278.78;5036376;27;96810;-29
2023/03/25 08:16:02;;;;;;;6.53;1.30;;;;;;;9.38;85.26;100281.28;5036154;28;97327;-29
2023/03/25 08:18:28;;;;;;;3.38;0.63;;;;;;;9.41;85.14;100285.59;5035025;28;100998;-29
2023/03/25 08:20:54;;;;;;;7.45;0.88;;;;;;;9.47;85.28;100287.94;5036025;27;96903;-30
2023/03/25 08:23:21;;;;;;;5.50;0.98;;;;;;;9.54;85.15;100284.69;5036124;28;96812;-29
2023/03/25 08:25:48;;;;;;;5.82;0.93;;;;;;;9.57;84.76;100279.09;5033924;28;101310;-29
2023/03/25 08:28:21;;;;;;;5.55;1.38;;;;;;;9.60;84.41;100285.25;5033484;28;101644;-30
2023/03/25 08:30:48;;;;;;;7.88;1.50;;;;;;;9.64;84.33;100317.41;5034699;28;96650;-29
2023/03/25 08:33:15;;;;;;;2.92;0.50;;;;;;;9.68;84.35;100286.50;5036103;27;96768;-29
2023/03/25 08:35:41;;;;;;;8.00;1.45;;;;;;;9.70;83.88;100299.91;5034104;28;100989;-29
2023/03/25 08:38:07;;;;;;;10.48;1.30;;;;;;;9.65;83.59;100297.50;5034327;28;102168;-29
2023/03/25 08:40:34;;;;;;;3.05;0.85;;;;;;;9.67;83.52;100290.16;5034582;28;96663;-29
2023/03/25 08:43:02;;;;;;;3.17;1.17;;;;;;;9.72;83.71;100300.66;5034901;28;96827;-30
2023/03/25 08:45:27;;;;;;;4.82;1.02;;;;;;;9.72;84.11;100285.28;5035443;27;97419;-31
2023/03/25 08:47:53;;;;;;;7.25;1.15;;;;;;;9.73;84.33;100292.47;5035751;28;97766;-30
2023/03/25 08:50:18;;;;;;;4.70;0.95;;;;;;;9.73;83.92;100302.41;5035042;28;96700;-30
2023/03/25 08:52:44;;;;;;;6.72;1.83;;;;;;;9.72;84.23;100289.84;5035710;28;96971;-29
2023/03/25 08:55:10;;;;;;;6.68;0.90;;;;;;;9.76;83.66;100310.31;5033960;28;100717;-29
2023/03/25 08:57:36;;;;;;;6.50;1.08;;;;;;;9.85;83.81;100284.50;5035205;27;99493;-29
2023/03/25 09:00:11;;;;;;;4.97;1.42;;;;;;;10.06;84.02;100299.28;5035649;27;96542;-29
2023/03/25 09:02:37;;;;;;;1.80;0.88;;;;;;;10.19;82.81;100299.28;5035568;27;96658;-29
2023/03/25 09:05:03;;;;;;;4.22;1.60;;;;;;;10.33;82.36;100293.81;5035076;27;97486;-29
2023/03/25 09:07:29;;;;;;;6.15;1.38;;;;;;;10.44;82.14;100293.06;5034119;28;101032;-30
2023/03/25 09:09:54;;;;;;;5.40;1.35;;;;;;;10.48;81.38;100316.22;5035254;27;96522;-29
2023/03/25 09:12:19;;;;;;;3.95;0.75;;;;;;;10.50;81.74;100294.47;5035565;27;96803;-29
2023/03/25 09:14:45;;;;;;;8.40;1.60;;;;;;;10.49;80.89;100300.88;5034623;27;96756;-29
2023/03/25 09:17:10;;;;;;;9.20;1.23;;;;;;;10.47;80.81;100309.09;5035094;27;97888;-30
2023/03/25 09:19:36;;;;;;;5.65;1.05;;;;;;;10.43;80.49;100301.28;5035060;27;96584;-29
2023/03/25 09:22:03;;;;;;;4.00;1.05;;;;;;;10.46;80.70;100304.63;5035496;27;96821;-30
2023/03/25 09:24:28;;;;;;;5.57;1.00;;;;;;;10.52;80.25;100309.63;5034850;27;99545;-30
2023/03/25 09:26:54;;;;;;;7.00;1.25;;;;;;;10.52;80.07;100311.50;5034427;27;97765;-29
2023/03/25 09:29:19;;;;;;;4.75;1.33;;;;;;;10.60;80.11;100306.38;5035233;28;96678;-29
2023/03/25 09:31:44;;;;;;;9.80;1.10;;;;;;;10.67;79.94;100306.81;5027592;28;96808;-30
2023/03/25 09:34:10;;;;;;;5.82;0.80;;;;;;;10.63;79.00;100303.50;5034551;27;99861;-29
2023/03/25 09:36:36;;;;;;;9.18;1.73;;;;;;;10.59;79.11;100323.63;5034735;27;99685;-32
2023/03/25 09:39:02;;;;;;;6.05;1.30;;;;;;;10.58;79.15;100316.47;5034347;27;96572;-29
2023/03/25 09:42:02;;;;;;;2.20;0.95;;;;;;;10.60;79.13;100322.63;5033664;28;97021;-29
2023/03/25 09:44:35;;;;;;;4.22;1.02;;;;;;;10.56;78.91;100327.41;5029924;28;99399;-29
2023/03/25 09:47:01;;;;;;;9.02;1.35;;;;;;;10.57;78.91;100320.16;5033308;28;100903;-30
2023/03/25 09:49:37;;;;;;;5.03;0.90;;;;;;;10.63;78.26;100319.75;5034986;27;96557;-31
2023/03/25 09:52:04;;;;;;;6.50;1.33;;;;;;;10.91;78.03;100332.16;5033766;28;96705;-30
2023/03/25 09:54:37;;;;;;;10.02;1.23;;;;;;;11.13;77.14;100320.66;5033022;28;100047;-30
2023/03/25 09:57:12;;;;;;;6.60;1.23;;;;;;;11.17;76.71;100324.88;5034453;28;98687;-29
2023/03/25 09:59:43;;;;;;;5.03;1.13;;;;;;;11.26;76.61;100326.06;5034861;28;96534;-29
2023/03/25 10:02:43;;;;;;;5.53;1.13;;;;;;;11.22;75.83;100346.22;5033538;28;96695;-29
2023/03/25 10:05:33;;;;;;;3.70;1.58;;;;;;;11.14;76.02;100340.50;5033771;28;97974;-29
2023/03/25 10:08:29;;;;;;;5.97;1.17;;;;;;;11.47;75.22;100329.91;5034525;28;97390;-29
2023/03/25 10:11:30;;;;;;;1.83;0.30;;;;;;;11.54;74.62;100357.44;5034657;28;96548;-30
2023/03/25 10:14:17;;;;;;;7.40;1.73;;;;;;;11.41;74.53;100343.03;5002469;27;96910;-29
2023/03/25 10:17:12;;;;;;;3.30;0.93;;;;;;;11.34;74.57;100356.19;5031497;28;101536;-29
2023/03/25 10:19:56;;;;;;;3.75;0.68;;;;;;;11.26;74.74;100336.91;5017660;28;97281;-31
2023/03/25 10:22:33;;;;;;;5.40;0.98;;;;;;;11.31;74.93;100353.69;5031907;28;97004;-30
2023/03/25 10:25:02;;;;;;;3.80;0.82;;;;;;;11.64;74.66;100354.91;5030994;28;96759;-30
2023/03/25 10:27:40;;;;;;;6.47;0.88;;;;;;;11.69;73.92;100378.00;5034028;27;99351;-30
2023/03/25 10:30:08;;;;;;;4.32;1.13;;;;;;;11.52;73.09;100347.69;5034288;27;100869;-30
2023/03/25 10:32:40;;;;;;;7.90;0.95;;;;;;;11.48;72.96;100342.47;5036767;27;97000;-29
2023/03/25 10:35:26;;;;;;;;;;;;;;;11.39;73.34;100367.59;5036891;28;96830;-31
2023/03/25 10:37:53;;;;;;;5.78;1.55;;;;;;;11.26;73.56;100383.00;5037196;28;98091;-30
2023/03/25 10:40:33;;;;;;;4.30;1.05;;;;;;;11.25;73.60;100382.13;5036148;28;101379;-29
2023/03/25 10:43:09;;;;;;;4.05;1.23;;;;;;;11.21;73.59;100377.03;5036500;28;96689;-29
2023/03/25 10:45:34;;;;;;;7.57;1.48;;;;;;;11.11;73.23;100376.84;5036471;27;96795;-29
2023/03/25 10:48:13;;;;;;;5.20;1.42;;;;;;;11.05;74.06;100363.72;5036011;28;100845;-29
2023/03/25 10:50:40;;;;;;;5.50;0.70;;;;;;;11.00;74.35;100380.28;5037652;27;99238;-31
2023/03/25 10:53:15;;;;;;;6.13;0.93;;;;;;;11.10;74.85;100385.91;5036115;28;96673;-29
2023/03/25 10:55:40;;;;;;;6.10;1.27;;;;;;;11.36;74.85;100378.63;5036203;28;96815;-31
2023/03/25 10:58:06;;;;;;;3.92;1.27;;;;;;;11.42;74.03;100385.47;5036675;28;99073;-29
2023/03/25 11:00:31;;;;;;;5.53;1.10;;;;;;;11.60;73.98;100372.41;5034910;28;99553;-29
2023/03/25 11:02:57;;;;;;;6.72;0.85;;;;;;;12.05;73.51;100386.28;5036026;28;96640;-29
2023/03/25 11:05:26;;;;;;;4.35;1.35;;;;;;;12.15;71.65;100386.44;5037045;27;96597;-29
2023/03/25 11:08:00;;;;;;;1.70;0.68;;;;;;;12.04;71.52;100379.97;5036664;27;96903;-29
2023/03/25 11:10:34;;;;;;;11.07;0.70;;;;;;;11.99;71.88;100381.28;5036104;27;100707;-30
2023/03/25 11:13:05;;;;;;;4.63;1.23;;;;;;;11.92;71.96;100386.34;5036102;28;96687;-29
2023/03/25 11:15:35;;;;;;;7.70;2.10;;;;;;;11.86;71.81;100393.03;5037945;27;96700;-30
2023/03/25 11:18:06;;;;;;;7.05;1.25;;;;;;;11.80;71.96;100409.78;5035545;28;100964;-30
2023/03/25 11:20:45;;;;;;;7.30;1.13;;;;;;;11.80;71.47;100395.34;5035415;28;101433;-29
2023/03/25 11:23:48;;;;;;;5.47;0.98;;;;;;;11.75;71.06;100416.50;5035040;28;97686;-29
2023/03/25 11:26:29;;;;;;;10.25;1.38;;;;;;;11.72;71.57;100411.31;4957302;28;96893;-29
2023/03/25 11:29:19;;;;;;;2.90;1.35;;;;;;;11.67;71.16;100398.09;5027677;28;101253;-29
2023/03/25 11:31:55;;;;;;;7.53;1.17;;;;;;;11.65;72.29;100405.47;5035206;27;101160;-30
2023/03/25 11:34:23;;;;;;;5.78;1.67;;;;;;;11.61;72.13;100374.16;5034654;28;96882;-30
2023/03/25 11:36:58;;;;;;;4.00;0.75;;;;;;;11.56;71.65;100403.44;5034230;27;98470;-29
2023/03/25 11:39:40;;;;;;;5.25;1.15;;;;;;;11.54;71.86;100408.13;5035249;27;100981;-29
2023/03/25 11:42:41;;;;;;;8.90;1.88;;;;;;;11.69;71.94;100401.56;5036915;27;98382;-29
2023/03/25 11:45:22;;;;;;;3.63;0.77;;;;;;;11.92;72.31;100407.16;5035496;28;96672;-30